ADDS METAR Data INFO
IDs: Format: Raw Decoded Include TAF

Data at: 0317 UTC 20 Jul 2018

KCIC 200147Z 17009KT 10SM FEW200 38/14 A2975 RMK LAST
KCIC 200050Z 17007KT 25SM FEW200 38/11 A2975
KCIC 192347Z 19006KT 25SM SCT200 39/09 A2977
KCIC 192247Z 190006KT 25SM SCT200 39/09 A2979
KCIC 192147Z 16009KT 10SM SCT100 38/08 A2982
KCIC 192055Z VRB06KT 10SM SCT250 37/12 A2985
KCIC 191947Z VRB05KT 10SM SCT180 35/13 A2986
KCIC 191850Z 18006KT 10SM SCT080 34/13 A2989
KCIC 191750Z 12004KT 10SM SCT080 32/13 A2990
KCIC 191655Z 00000KT 10SM FEW080 30/13 A2990
KCIC 191547Z VRB05KT 10SM FEW070 28/13 A2991
KCIC 191447Z VRB05KT 25SM FEW060 FEW200 26/12 A2990
KCIC 191355Z VRB05KT 25SM SCT200 25/13 A2990
KCIC 191315Z AUTO 00000KT 10SM CLR 24/13 A2988 RMK AO1
KCIC 191255Z AUTO 00000KT 10SM CLR 24/13 A2988 RMK AO1
KCIC 191235Z AUTO 00000KT 10SM CLR 25/12 A2987 RMK AO1
KCIC 191215Z AUTO 00000KT 10SM CLR 25/13 A2987 RMK AO1
KCIC 191155Z AUTO 36003KT 10SM CLR 24/13 A2987 RMK AO1
KCIC 191135Z AUTO 34004KT 10SM CLR 25/13 A2987 RMK AO1
KCIC 191115Z AUTO 34004KT 10SM CLR 25/14 A2987 RMK AO1
KCIC 191055Z AUTO 34005KT 10SM CLR 25/14 A2987 RMK AO1
KCIC 191035Z AUTO 35004KT 10SM CLR 25/14 A2987 RMK AO1
KCIC 191015Z AUTO 34005KT 10SM CLR 24/14 A2987 RMK AO1
KCIC 190955Z AUTO 34006KT 10SM CLR 24/14 A2986 RMK AO1
KCIC 190935Z AUTO 00000KT 10SM CLR 26/14 A2985 RMK AO1
KCIC 190915Z AUTO 27003KT 10SM CLR 26/14 A2985 RMK AO1
KCIC 190855Z AUTO 24005KT 10SM CLR 27/13 A2985 RMK AO1
KCIC 190835Z AUTO 00000KT 10SM CLR 29/12 A2984 RMK AO1
KCIC 190815Z AUTO 12003KT 10SM CLR 29/12 A2984 RMK AO1
KCIC 190755Z AUTO 00000KT 10SM CLR 30/10 A2984 RMK AO1
KCIC 190735Z AUTO 00000KT 10SM CLR 30/11 A2984 RMK AO1
KCIC 190715Z AUTO 00000KT 10SM CLR 30/11 A2984 RMK AO1
KCIC 190655Z AUTO 06005KT 10SM CLR 31/11 A2983 RMK AO1
KCIC 190635Z AUTO 04005KT 10SM CLR 32/11 A2983 RMK AO1
KCIC 190615Z AUTO 04003KT 10SM CLR 32/10 A2983 RMK AO1
KCIC 190555Z AUTO 00000KT 10SM CLR 32/10 A2983 RMK AO1
KCIC 190535Z AUTO 05005KT 10SM CLR 32/09 A2983 RMK AO1
KCIC 190455Z AUTO 15004KT 10SM CLR 33/11 A2983 RMK AO1
KCIC 190435Z AUTO 00000KT 10SM CLR 34/10 A2982 RMK AO1
KCIC 190415Z AUTO 16003KT 10SM CLR 34/12 A2982 RMK AO1
KCIC 190355Z AUTO 00000KT 10SM CLR 35/13 A2981 RMK AO1
KCIC 190335Z AUTO 00000KT 10SM CLR 35/14 A2980 RMK AO1
KCIC 190315Z AUTO 24003KT 10SM CLR 36/14 A2981 RMK AO1
KCIC 190147Z 15005KT 10SM BKN200 38/04 A2981 RMK LAST
KCIC 190047Z 18006KT 10SM BKN200 39/06 A2982
KCIC 182347Z 18006KT 25SM BKN200 39/07 A2983
KCIC 182247Z 19006KT 25SM BKN200 39/06 A2984
KCIC 182147Z 19008KT 40SM BKN200 38/14 A2987
KCIC 182047Z 17005KT 40SM SCT200 37/11 A2989
KCIC 181950Z 21005KT 40SM SCT200 36/11 A2991
KCIC 181847Z VRB05KT 40SM FEW200 34/13 A2993
KCIC 181747Z VRB05KT 40SM SCT250 32/14 A2994
KCIC 181647Z VRB05KT 40SM SCT250 30/12 A2994
KCIC 181547Z VRB05KT 25SM SKC 28/12 A2995